createdAt,value
2019-06-10T00:00:36.081Z,82.30
2019-06-10T00:03:07.260Z,82.60
2019-06-10T00:05:37.271Z,81.80
2019-06-10T00:08:07.247Z,82.10
2019-06-10T00:10:37.573Z,82.50
2019-06-10T00:13:08.631Z,82.60
2019-06-10T00:15:40.955Z,84.50
2019-06-10T00:18:34.155Z,85.30
2019-06-10T00:20:42.669Z,85.60
2019-06-10T00:23:12.866Z,85.20
2019-06-10T00:25:42.837Z,85.10
2019-06-10T00:28:12.933Z,84.70
2019-06-10T00:30:43.168Z,85.60
2019-06-10T00:33:13.390Z,86.00
2019-06-10T00:35:44.624Z,87.20
2019-06-10T00:38:14.843Z,87.00
2019-06-10T00:40:45.163Z,86.20
2019-06-10T00:43:15.040Z,86.20
2019-06-10T00:45:45.210Z,85.60
2019-06-10T00:48:25.297Z,84.90
2019-06-10T00:50:51.598Z,84.30
2019-06-10T00:53:21.184Z,85.10
2019-06-10T00:55:52.535Z,85.00
2019-06-10T00:58:22.702Z,84.70
2019-06-10T01:00:52.886Z,84.40
2019-06-10T01:03:23.074Z,85.10
2019-06-10T01:05:53.183Z,85.80
2019-06-10T01:08:23.503Z,86.20
2019-06-10T01:10:53.751Z,86.00
2019-06-10T01:13:24.034Z,85.50
2019-06-10T01:15:54.217Z,85.90
2019-06-10T01:18:34.667Z,86.10
2019-06-10T01:20:56.389Z,85.70
2019-06-10T01:23:26.222Z,85.40
2019-06-10T01:25:56.406Z,85.60
2019-06-10T01:28:26.353Z,87.60
2019-06-10T01:30:56.447Z,86.50
2019-06-10T01:33:26.675Z,88.00
2019-06-10T01:35:56.624Z,88.30
2019-06-10T01:38:26.903Z,88.20
2019-06-10T01:40:58.043Z,89.50
2019-06-10T01:43:28.289Z,89.70
2019-06-10T01:45:58.177Z,90.10
2019-06-10T01:48:40.558Z,89.60
2019-06-10T01:51:01.839Z,90.10
2019-06-10T01:53:32.096Z,89.70
2019-06-10T01:56:02.300Z,90.10
2019-06-10T01:58:32.167Z,90.00
2019-06-10T02:01:23.369Z,88.70
2019-06-10T02:03:53.525Z,89.60
2019-06-10T02:06:25.793Z,90.10
2019-06-10T02:08:56.982Z,89.80
2019-06-10T02:11:27.108Z,90.10
2019-06-10T02:13:57.251Z,90.20
2019-06-10T02:16:27.451Z,90.10
2019-06-10T02:19:00.801Z,89.70
2019-06-10T02:21:31.128Z,89.30
2019-06-10T02:24:01.148Z,89.20
2019-06-10T02:26:31.334Z,89.70
2019-06-10T02:29:01.264Z,89.20
2019-06-10T02:31:37.445Z,88.70
2019-06-10T02:34:03.098Z,88.80
2019-06-10T02:36:36.784Z,88.40
2019-06-10T02:39:08.194Z,88.80
2019-06-10T02:41:39.151Z,88.70
2019-06-10T02:44:09.210Z,88.80
2019-06-10T02:46:39.184Z,88.40
2019-06-10T02:49:23.215Z,88.50
2019-06-10T02:51:43.723Z,88.20
2019-06-10T02:54:16.074Z,88.00
2019-06-10T02:56:45.105Z,88.50
2019-06-10T02:59:16.204Z,89.40
2019-06-10T03:01:47.046Z,90.10
2019-06-10T03:04:18.374Z,90.20
2019-06-10T03:06:54.076Z,90.30
2019-06-10T03:09:26.419Z,90.10
2019-06-10T03:11:53.458Z,90.20
2019-06-10T03:14:25.261Z,90.20
2019-06-10T03:16:57.331Z,90.10
2019-06-10T03:19:42.198Z,90.00
2019-06-10T03:22:02.603Z,90.00
2019-06-10T03:24:32.767Z,89.50
2019-06-10T03:27:04.157Z,89.10
2019-06-10T03:29:34.340Z,88.70
2019-06-10T03:32:05.147Z,88.70
2019-06-10T03:34:41.576Z,89.00
2019-06-10T03:37:07.761Z,89.20
2019-06-10T03:39:37.874Z,90.00
2019-06-10T03:42:08.069Z,90.50
2019-06-10T03:44:38.221Z,90.40
2019-06-10T03:47:08.412Z,90.50
2019-06-10T03:49:49.963Z,90.40
2019-06-10T03:52:12.827Z,90.20
2019-06-10T03:54:43.270Z,90.10
2019-06-10T03:57:13.681Z,90.20
2019-06-10T03:59:43.811Z,90.20
2019-06-10T04:02:14.088Z,90.10
2019-06-10T04:04:44.228Z,90.00
2019-06-10T04:07:14.494Z,90.10
2019-06-10T04:09:44.725Z,89.90
2019-06-10T04:12:15.040Z,89.70
2019-06-10T04:14:45.235Z,89.20
2019-06-10T04:17:15.462Z,89.50
2019-06-10T04:19:45.679Z,89.30
2019-06-10T04:22:15.974Z,88.60
2019-06-10T04:24:46.127Z,89.10
2019-06-10T04:27:17.497Z,89.50
2019-06-10T04:29:47.955Z,89.00
2019-06-10T04:32:18.247Z,89.10
2019-06-10T04:34:48.385Z,89.80
2019-06-10T04:37:18.591Z,90.00
2019-06-10T04:39:48.865Z,90.20
2019-06-10T04:42:20.316Z,90.20
2019-06-10T04:44:52.562Z,90.10
2019-06-10T04:47:23.767Z,90.20
2019-06-10T04:49:54.450Z,90.00
2019-06-10T04:52:25.162Z,90.60
2019-06-10T04:54:56.655Z,90.60
2019-06-10T04:57:28.052Z,90.70
2019-06-10T04:59:58.405Z,91.00
2019-06-10T05:02:30.023Z,90.80
2019-06-10T05:05:02.686Z,91.20
2019-06-10T05:07:36.637Z,91.30
2019-06-10T05:10:05.867Z,91.40
2019-06-10T05:12:36.086Z,91.30
2019-06-10T05:15:06.836Z,90.90
2019-06-10T05:17:37.057Z,90.90
2019-06-10T05:20:08.080Z,91.40
2019-06-10T05:22:38.205Z,91.10
2019-06-10T05:25:08.468Z,90.80
2019-06-10T05:27:39.569Z,90.80
2019-06-10T05:30:12.269Z,90.40
2019-06-10T05:32:43.258Z,90.60
2019-06-10T05:35:13.847Z,90.70
2019-06-10T05:37:43.748Z,90.80
2019-06-10T05:40:14.211Z,90.70
2019-06-10T05:42:44.403Z,91.30
2019-06-10T05:45:14.382Z,91.00
2019-06-10T05:47:44.592Z,91.40
2019-06-10T05:50:14.553Z,91.60
2019-06-10T05:52:44.695Z,91.20
2019-06-10T05:55:14.969Z,90.70
2019-06-10T05:57:44.828Z,91.00
2019-06-10T06:00:16.111Z,90.10
2019-06-10T06:02:46.131Z,90.00
2019-06-10T06:05:16.590Z,89.50
2019-06-10T06:07:58.926Z,88.70
2019-06-10T06:10:18.776Z,90.20
2019-06-10T06:13:08.340Z,89.10
2019-06-10T06:15:38.550Z,87.80
2019-06-10T06:18:10.671Z,88.20
2019-06-10T06:20:43.491Z,88.50
2019-06-10T06:23:12.483Z,89.00
2019-06-10T06:25:46.298Z,89.30
2019-06-10T06:28:16.167Z,89.00
2019-06-10T06:30:46.644Z,89.00
2019-06-10T06:33:16.871Z,89.70
2019-06-10T06:35:47.271Z,90.10
2019-06-10T06:38:22.449Z,89.80
2019-06-10T06:40:53.764Z,89.40
2019-06-10T06:43:24.234Z,89.50
2019-06-10T06:45:54.577Z,89.40
2019-06-10T06:48:24.850Z,89.20
2019-06-10T06:51:04.409Z,89.40
2019-06-10T06:53:33.179Z,88.70
2019-06-10T06:55:58.931Z,88.80
2019-06-10T06:58:29.132Z,87.80
2019-06-10T07:01:10.274Z,87.80
2019-06-10T07:03:38.125Z,88.10
2019-06-10T07:06:08.331Z,88.20
2019-06-10T07:08:41.494Z,88.60
2019-06-10T07:11:15.306Z,88.00
2019-06-10T07:13:46.160Z,88.00
2019-06-10T07:16:18.875Z,87.70
2019-06-10T07:18:50.405Z,87.70
2019-06-10T07:21:22.739Z,88.70
2019-06-10T07:23:53.075Z,88.00
2019-06-10T07:26:23.173Z,87.40
2019-06-10T07:28:53.913Z,87.00
2019-06-10T07:31:27.822Z,86.40
2019-06-10T07:33:58.292Z,85.70
2019-06-10T07:36:28.657Z,85.40
2019-06-10T07:38:58.689Z,83.70
2019-06-10T07:41:34.422Z,84.40
2019-06-10T07:44:07.652Z,84.10
2019-06-10T07:46:39.275Z,83.80
2019-06-10T07:49:09.724Z,84.20
2019-06-10T07:51:41.362Z,83.80
2019-06-10T07:54:12.446Z,83.20
2019-06-10T07:56:49.805Z,83.40
2019-06-10T07:59:16.133Z,83.50
2019-06-10T08:01:55.395Z,83.40
2019-06-10T08:04:44.573Z,82.80
2019-06-10T08:07:35.253Z,83.60
2019-06-10T08:10:19.573Z,82.90
2019-06-10T08:12:52.335Z,83.30
2019-06-10T08:15:49.938Z,82.80
2019-06-10T08:18:22.527Z,83.20
2019-06-10T08:20:52.961Z,83.30
2019-06-10T08:23:23.918Z,83.20
2019-06-10T08:26:03.534Z,83.20
2019-06-10T08:28:35.502Z,82.70
2019-06-10T08:31:17.486Z,83.40
2019-06-10T08:33:53.282Z,82.00
2019-06-10T08:36:33.361Z,80.70
2019-06-10T08:39:15.618Z,80.30
2019-06-10T08:41:49.052Z,80.80
2019-06-10T08:44:26.460Z,79.20
2019-06-10T08:46:58.484Z,79.20
2019-06-10T08:49:32.586Z,78.40
2019-06-10T08:52:04.691Z,79.00
2019-06-10T08:54:39.612Z,79.20
2019-06-10T08:57:12.458Z,79.70
2019-06-10T08:59:45.594Z,78.30
2019-06-10T09:02:13.495Z,78.50
2019-06-10T09:04:47.626Z,78.00
2019-06-10T09:07:15.575Z,78.50
2019-06-10T09:09:48.627Z,78.40
2019-06-10T09:12:30.299Z,79.10
2019-06-10T09:14:50.693Z,78.80
2019-06-10T09:17:22.818Z,78.70
2019-06-10T09:19:54.192Z,77.60
2019-06-10T09:22:26.007Z,77.60
2019-06-10T09:24:56.603Z,76.80
2019-06-10T09:27:27.225Z,79.80
2019-06-10T09:29:57.742Z,77.60
2019-06-10T09:32:27.990Z,78.30
2019-06-10T09:34:58.416Z,75.40
2019-06-10T09:37:28.350Z,75.30
2019-06-10T09:39:59.877Z,72.90
2019-06-10T09:42:30.444Z,73.40
2019-06-10T09:45:02.707Z,70.50
2019-06-10T09:47:34.781Z,68.80
2019-06-10T09:50:09.007Z,67.10
2019-06-10T09:52:43.030Z,68.10
2019-06-10T09:55:12.864Z,69.70
2019-06-10T09:57:45.132Z,69.50
2019-06-10T10:00:17.628Z,65.90
2019-06-10T10:02:50.442Z,68.10
2019-06-10T10:05:19.147Z,67.20
2019-06-10T10:07:51.935Z,68.10
2019-06-10T10:10:24.787Z,68.30
2019-06-10T10:12:55.810Z,68.80
2019-06-10T10:15:30.805Z,67.70
2019-06-10T10:17:58.169Z,67.70
2019-06-10T10:20:30.094Z,67.20
2019-06-10T10:23:02.718Z,68.20
2019-06-10T10:25:33.427Z,68.10
2019-06-10T10:28:04.807Z,67.50
2019-06-10T10:30:34.828Z,67.30
2019-06-10T10:33:05.479Z,68.40
2019-06-10T10:35:36.539Z,67.50
2019-06-10T10:38:06.533Z,67.80
2019-06-10T10:40:36.840Z,68.40
2019-06-10T10:43:23.269Z,67.40
2019-06-10T10:45:38.886Z,66.80
2019-06-10T10:48:09.088Z,66.40
2019-06-10T10:50:39.979Z,65.80
2019-06-10T10:53:12.847Z,65.70
2019-06-10T10:55:45.196Z,63.20
2019-06-10T10:58:15.748Z,63.90
2019-06-10T11:00:49.261Z,63.90
2019-06-10T11:03:17.948Z,62.90
2019-06-10T11:05:49.929Z,64.20
2019-06-10T11:08:19.936Z,65.30
2019-06-10T11:10:58.765Z,65.40
2019-06-10T11:13:28.319Z,64.50
2019-06-10T11:16:11.585Z,63.90
2019-06-10T11:18:45.271Z,64.20
2019-06-10T11:21:16.450Z,63.70
2019-06-10T11:23:48.118Z,64.90
2019-06-10T11:26:18.568Z,66.60
2019-06-10T11:28:49.525Z,67.50
2019-06-10T11:31:19.608Z,69.40
2019-06-10T11:33:56.974Z,70.80
2019-06-10T11:36:23.822Z,70.60
2019-06-10T11:38:56.936Z,70.20
2019-06-10T11:41:25.558Z,70.50
2019-06-10T11:43:59.008Z,69.30
2019-06-10T11:46:27.763Z,66.60
2019-06-10T11:48:59.083Z,64.60
2019-06-10T11:51:29.505Z,62.90
2019-06-10T11:53:59.850Z,62.80
2019-06-10T11:56:29.704Z,62.20
2019-06-10T11:59:03.980Z,61.10
2019-06-10T12:01:31.650Z,61.30
2019-06-10T12:04:04.129Z,61.70
2019-06-10T12:06:34.095Z,61.60
2019-06-10T12:09:08.524Z,60.90
2019-06-10T12:11:38.602Z,61.30
2019-06-10T12:14:09.089Z,62.10
2019-06-10T12:19:12.771Z,62.10
2019-06-10T12:21:43.619Z,62.00
2019-06-10T12:24:13.813Z,61.90
2019-06-10T12:26:44.226Z,62.00
2019-06-10T12:29:14.463Z,62.50
2019-06-10T12:31:44.440Z,60.80
2019-06-10T12:34:14.392Z,60.60
2019-06-10T12:36:44.792Z,60.10
2019-06-10T12:39:17.492Z,61.00
2019-06-10T12:41:47.821Z,61.80
2019-06-10T12:44:18.223Z,61.90
2019-06-10T12:46:54.888Z,62.20
2019-06-10T12:49:23.501Z,61.50
2019-06-10T12:51:54.798Z,62.20
2019-06-10T12:54:26.250Z,63.80
2019-06-10T12:56:58.015Z,65.40
2019-06-10T12:59:28.073Z,67.50
2019-06-10T13:02:01.869Z,68.90
2019-06-10T13:04:31.232Z,70.30
2019-06-10T13:07:05.061Z,71.10
2019-06-10T13:09:34.687Z,72.40
2019-06-10T13:12:04.716Z,72.10
2019-06-10T13:14:35.122Z,72.30
2019-06-10T13:17:05.765Z,72.70
2019-06-10T13:19:35.921Z,73.00
2019-06-10T13:22:07.143Z,73.10
2019-06-10T13:24:38.336Z,73.10
2019-06-10T13:27:09.393Z,72.40
2019-06-10T13:29:39.561Z,71.70
2019-06-10T13:32:09.822Z,72.00
2019-06-10T13:34:42.466Z,72.10
2019-06-10T13:37:15.849Z,72.60
2019-06-10T13:39:43.853Z,72.40
2019-06-10T13:42:14.581Z,71.50
2019-06-10T13:44:44.570Z,71.60
2019-06-10T13:47:16.441Z,71.10
2019-06-10T13:49:46.754Z,71.40
2019-06-10T13:52:17.155Z,71.70
2019-06-10T13:54:47.212Z,70.90
2019-06-10T13:57:17.606Z,70.80
2019-06-10T13:59:51.889Z,68.70
2019-06-10T14:02:24.590Z,69.30
2019-06-10T14:04:53.367Z,71.20
2019-06-10T14:07:24.095Z,69.80
2019-06-10T14:09:54.001Z,68.30
2019-06-10T14:12:24.401Z,69.10
2019-06-10T14:14:54.568Z,68.50
2019-06-10T14:17:24.996Z,69.10
2019-06-10T14:19:55.374Z,69.10
2019-06-10T14:22:25.821Z,69.30
2019-06-10T14:24:56.213Z,69.00
2019-06-10T14:27:26.554Z,67.30
2019-06-10T14:29:56.855Z,68.80
2019-06-10T14:32:27.070Z,70.80
2019-06-10T14:34:57.187Z,71.40
2019-06-10T14:37:35.727Z,71.30
2019-06-10T14:40:03.505Z,71.20
2019-06-10T14:42:32.531Z,71.20
2019-06-10T14:45:02.524Z,70.00
2019-06-10T14:47:32.972Z,70.40
2019-06-10T14:50:03.391Z,70.00
2019-06-10T14:52:34.895Z,69.80
2019-06-10T14:55:07.080Z,70.80
2019-06-10T14:57:37.529Z,71.40
2019-06-10T15:00:09.783Z,71.20
2019-06-10T15:02:42.799Z,71.70
2019-06-10T15:05:15.729Z,71.50
2019-06-10T15:07:44.921Z,70.20
2019-06-10T15:10:17.869Z,70.60
2019-06-10T15:12:48.471Z,70.60
2019-06-10T15:15:21.064Z,70.30
2019-06-10T15:17:52.587Z,69.40
2019-06-10T15:20:23.183Z,70.00
2019-06-10T15:22:53.111Z,70.10
2019-06-10T15:25:27.914Z,69.80
2019-06-10T15:27:55.168Z,70.00
2019-06-10T15:30:28.000Z,69.00
2019-06-10T15:32:57.142Z,68.90
2019-06-10T15:35:27.436Z,68.80
2019-06-10T15:37:59.460Z,68.60
2019-06-10T15:40:29.439Z,69.00
2019-06-10T15:42:59.910Z,70.50
2019-06-10T15:45:32.388Z,70.60
2019-06-10T15:48:02.580Z,71.10
2019-06-10T15:50:32.728Z,71.50
2019-06-10T15:53:03.273Z,71.50
2019-06-10T15:56:05.810Z,72.00
2019-06-10T15:58:07.663Z,71.50
2019-06-10T16:00:42.414Z,71.90
2019-06-10T16:03:15.900Z,72.10
2019-06-10T16:05:44.740Z,72.50
2019-06-10T16:08:15.948Z,72.00
2019-06-10T16:10:46.917Z,71.30
2019-06-10T16:13:16.943Z,70.50
2019-06-10T16:15:47.304Z,72.40
2019-06-10T16:18:18.846Z,73.50
2019-06-10T16:20:49.155Z,74.80
2019-06-10T16:23:19.773Z,74.90
2019-06-10T16:25:50.191Z,75.10
2019-06-10T16:28:22.876Z,74.40
2019-06-10T16:30:53.719Z,74.20
2019-06-10T16:33:27.641Z,74.50
2019-06-10T16:35:55.964Z,75.20
2019-06-10T16:38:27.264Z,77.10
2019-06-10T16:40:57.855Z,79.40
2019-06-10T16:43:28.210Z,79.60
2019-06-10T16:45:58.303Z,80.40
2019-06-10T16:48:29.723Z,80.30
2019-06-10T16:50:59.854Z,81.30
2019-06-10T16:53:32.347Z,81.00
2019-06-10T16:56:03.333Z,81.30
2019-06-10T16:58:33.762Z,80.90
2019-06-10T17:01:04.401Z,81.00
2019-06-10T17:03:34.593Z,81.50
2019-06-10T17:06:05.539Z,80.60
2019-06-10T17:08:35.551Z,81.20
2019-06-10T17:11:05.975Z,80.50
2019-06-10T17:13:37.484Z,80.20
2019-06-10T17:16:07.410Z,80.40
2019-06-10T17:18:37.293Z,81.00
2019-06-10T17:21:07.794Z,81.50
2019-06-10T17:23:39.150Z,81.40
2019-06-10T17:26:09.466Z,81.50
2019-06-10T17:28:39.887Z,81.80
2019-06-10T17:31:10.177Z,82.10
2019-06-10T17:33:42.747Z,82.10
2019-06-10T17:36:12.604Z,82.20
2019-06-10T17:38:43.051Z,82.50
2019-06-10T17:41:16.453Z,82.40
2019-06-10T17:43:46.670Z,82.60
2019-06-10T17:46:16.693Z,82.20
2019-06-10T17:48:46.679Z,82.40
2019-06-10T17:51:16.649Z,82.60
2019-06-10T17:53:46.995Z,82.60
2019-06-10T17:56:33.660Z,83.40
2019-06-10T17:59:03.505Z,83.40
2019-06-10T18:01:35.511Z,83.00
2019-06-10T18:04:06.027Z,82.60
2019-06-10T18:06:36.538Z,82.20
2019-06-10T18:09:08.386Z,82.80
2019-06-10T18:11:38.925Z,82.80
2019-06-10T18:14:12.037Z,83.00
2019-06-10T18:16:42.655Z,82.30
2019-06-10T18:19:12.855Z,82.60
2019-06-10T18:21:42.870Z,82.10
2019-06-10T18:24:12.899Z,82.70
2019-06-10T18:26:43.250Z,82.80
2019-06-10T18:29:13.489Z,82.60
2019-06-10T18:31:43.914Z,82.40
2019-06-10T18:34:13.981Z,82.40
2019-06-10T18:36:43.942Z,82.40
2019-06-10T18:39:15.505Z,82.30
2019-06-10T18:41:46.144Z,82.00
2019-06-10T18:44:22.856Z,82.70
2019-06-10T18:46:48.299Z,82.70
2019-06-10T18:49:18.525Z,82.40
2019-06-10T18:51:48.715Z,83.90
2019-06-10T18:54:18.631Z,84.60
2019-06-10T18:56:48.524Z,84.20
2019-06-10T18:59:21.291Z,84.90
2019-06-10T19:01:52.723Z,84.50
2019-06-10T19:04:22.935Z,84.20
2019-06-10T19:06:53.353Z,84.90
2019-06-10T19:09:23.663Z,85.00
2019-06-10T19:11:55.524Z,85.60
2019-06-10T19:14:25.893Z,85.40
2019-06-10T19:16:56.193Z,85.50
2019-06-10T19:19:26.531Z,86.40
2019-06-10T19:22:05.502Z,86.20
2019-06-10T19:24:28.430Z,86.30
2019-06-10T19:27:02.041Z,86.80
2019-06-10T19:29:38.411Z,86.80
2019-06-10T19:32:03.884Z,86.70
2019-06-10T19:34:35.336Z,86.30
2019-06-10T19:37:05.919Z,86.10
2019-06-10T19:39:42.551Z,86.20
2019-06-10T19:42:09.337Z,85.70
2019-06-10T19:44:45.554Z,86.50
2019-06-10T19:47:13.525Z,86.10
2019-06-10T19:49:44.895Z,86.60
2019-06-10T19:52:15.428Z,87.80
2019-06-10T19:54:45.713Z,88.20
2019-06-10T19:57:15.654Z,89.00
2019-06-10T20:00:03.920Z,89.80
2019-06-10T20:02:17.460Z,89.80
2019-06-10T20:04:47.471Z,90.00
2019-06-10T20:07:17.737Z,89.60
2019-06-10T20:09:48.142Z,89.20
2019-06-10T20:12:19.905Z,89.30
2019-06-10T20:14:49.933Z,89.30
2019-06-10T20:17:22.610Z,88.80
2019-06-10T20:19:52.217Z,88.70
2019-06-10T20:22:22.824Z,87.90
2019-06-10T20:24:53.509Z,87.00
2019-06-10T20:27:24.975Z,87.70
2019-06-10T20:36:53.460Z,88.10
2019-06-10T20:39:24.843Z,88.90
2019-06-10T20:41:55.929Z,88.70
2019-06-10T20:47:53.384Z,88.40
2019-06-10T20:50:23.917Z,88.20
2019-06-10T20:52:54.213Z,88.10
2019-06-10T20:55:37.679Z,88.80
2019-06-10T20:58:03.541Z,89.50
2019-06-10T21:00:41.986Z,90.00
2019-06-10T21:03:10.288Z,89.50
2019-06-10T21:05:43.675Z,89.80
2019-06-10T21:08:15.438Z,89.70
2019-06-10T21:10:48.020Z,90.10
2019-06-10T21:13:17.746Z,90.00
2019-06-10T21:15:50.464Z,90.00
2019-06-10T21:18:22.421Z,89.70
2019-06-10T21:20:56.102Z,89.50
2019-06-10T21:23:24.063Z,89.10
2019-06-10T21:25:54.059Z,88.50
2019-06-10T21:28:24.615Z,88.30
2019-06-10T21:30:58.888Z,88.00
2019-06-10T21:33:27.015Z,87.50
2019-06-10T21:35:57.005Z,87.10
2019-06-10T21:38:27.358Z,87.00
2019-06-10T21:40:57.245Z,87.00
2019-06-10T21:43:27.554Z,87.00
2019-06-10T21:45:57.976Z,86.80
2019-06-10T21:48:27.981Z,86.70
2019-06-10T21:50:57.878Z,86.50
2019-06-10T21:53:27.820Z,86.40
2019-06-10T21:55:57.684Z,86.90
2019-06-10T21:58:27.962Z,87.50
2019-06-10T22:01:11.663Z,88.10
2019-06-10T22:03:32.258Z,88.30
2019-06-10T22:06:02.781Z,88.20
2019-06-10T22:08:33.600Z,88.20
2019-06-10T22:11:04.199Z,88.30
2019-06-10T22:13:34.506Z,87.90
2019-06-10T22:16:04.925Z,87.90
2019-06-10T22:18:34.884Z,87.80
2019-06-10T22:21:05.352Z,87.80
2019-06-10T22:23:35.573Z,87.70
2019-06-10T22:26:05.798Z,87.50
2019-06-10T22:28:35.631Z,87.80
2019-06-10T22:31:19.058Z,87.90
2019-06-10T22:33:37.179Z,88.00
2019-06-10T22:36:07.310Z,87.60
2019-06-10T22:38:37.529Z,87.20
2019-06-10T22:41:07.399Z,87.20
2019-06-10T22:43:37.678Z,87.70
2019-06-10T22:46:07.891Z,87.70
2019-06-10T22:48:38.113Z,88.50
2019-06-10T22:51:08.074Z,88.30
2019-06-10T22:53:38.283Z,88.40
2019-06-10T22:56:08.677Z,88.30
2019-06-10T22:58:39.012Z,88.80
2019-06-10T23:01:09.340Z,88.30
2019-06-10T23:03:39.543Z,88.00
2019-06-10T23:06:09.475Z,88.00
2019-06-10T23:08:39.705Z,89.20
2019-06-10T23:11:09.619Z,88.50
2019-06-10T23:13:42.314Z,88.80
2019-06-10T23:16:13.004Z,89.30
2019-06-10T23:18:46.408Z,88.80
2019-06-10T23:21:16.739Z,88.80
2019-06-10T23:23:47.237Z,88.80
2019-06-10T23:26:17.468Z,89.00
2019-06-10T23:28:49.800Z,88.70
2019-06-10T23:31:20.177Z,89.30
2019-06-10T23:33:50.287Z,89.60
2019-06-10T23:36:23.345Z,89.70
2019-06-10T23:38:52.812Z,90.00
2019-06-10T23:41:23.040Z,90.00
2019-06-10T23:43:53.085Z,90.00
2019-06-10T23:46:25.576Z,90.00
2019-06-10T23:48:57.417Z,90.10
2019-06-10T23:51:29.340Z,90.20
2019-06-10T23:54:02.001Z,89.60
2019-06-10T23:56:32.604Z,89.70
2019-06-10T23:59:03.493Z,90.10
